createdAt,value
2019-02-19T00:00:05.799Z,2.04
2019-02-19T00:02:34.581Z,2.08
2019-02-19T00:05:03.672Z,1.89
2019-02-19T00:07:32.585Z,1.29
2019-02-19T00:10:01.270Z,0.90
2019-02-19T00:12:30.146Z,0.61
2019-02-19T00:15:15.007Z,0.51
2019-02-19T00:17:43.650Z,0.52
2019-02-19T00:20:12.470Z,0.38
2019-02-19T00:22:41.370Z,0.38
2019-02-19T00:25:10.156Z,0.22
2019-02-19T00:27:38.855Z,0.17
2019-02-19T00:30:08.477Z,0.39
2019-02-19T00:32:37.153Z,0.59
2019-02-19T00:35:07.341Z,0.67
2019-02-19T00:37:36.331Z,0.63
2019-02-19T00:40:05.550Z,0.70
2019-02-19T00:42:34.629Z,0.73
2019-02-19T00:45:03.421Z,0.73
2019-02-19T00:47:32.206Z,0.75
2019-02-19T00:50:01.005Z,0.83
2019-02-19T00:52:29.765Z,0.65
2019-02-19T00:54:58.555Z,0.57
2019-02-19T00:57:27.450Z,0.56
2019-02-19T00:59:56.548Z,0.44
2019-02-19T01:02:25.335Z,0.20
2019-02-19T01:04:54.002Z,0.04
2019-02-19T01:07:22.635Z,0.09
2019-02-19T01:09:51.335Z,-0.11
2019-02-19T01:12:19.969Z,-0.16
2019-02-19T01:14:48.673Z,-0.40
2019-02-19T01:17:17.438Z,-0.49
2019-02-19T01:19:46.346Z,-0.37
2019-02-19T01:22:15.003Z,-0.58
2019-02-19T01:24:43.905Z,-0.66
2019-02-19T01:27:12.615Z,-0.76
2019-02-19T01:29:41.480Z,-0.50
2019-02-19T01:32:10.142Z,-0.57
2019-02-19T01:34:39.040Z,-0.60
2019-02-19T01:37:07.827Z,-0.78
2019-02-19T01:39:36.458Z,-0.89
2019-02-19T01:42:05.165Z,-0.83
2019-02-19T01:44:33.895Z,-0.66
2019-02-19T01:47:02.784Z,-0.73
2019-02-19T01:49:31.566Z,-1.22
2019-02-19T01:52:00.453Z,-1.39
2019-02-19T01:54:29.116Z,-1.54
2019-02-19T01:56:57.896Z,-1.38
2019-02-19T01:59:26.541Z,-1.02
2019-02-19T02:01:55.185Z,-1.01
2019-02-19T02:04:24.077Z,-0.97
2019-02-19T02:06:52.696Z,-1.06
2019-02-19T02:09:21.655Z,-1.18
2019-02-19T02:11:50.438Z,-1.20
2019-02-19T02:14:19.225Z,-1.18
2019-02-19T02:16:47.975Z,-1.30
2019-02-19T02:19:16.788Z,-1.38
2019-02-19T02:21:45.692Z,-1.44
2019-02-19T02:24:14.475Z,-1.58
2019-02-19T02:26:43.180Z,-1.54
2019-02-19T02:29:11.819Z,-1.43
2019-02-19T02:31:40.835Z,-1.55
2019-02-19T02:34:09.615Z,-1.69
2019-02-19T02:36:38.307Z,-1.73
2019-02-19T02:39:07.298Z,-1.57
2019-02-19T02:41:35.976Z,-1.26
2019-02-19T02:44:04.861Z,-1.16
2019-02-19T02:46:33.655Z,-1.25
2019-02-19T02:49:02.380Z,-1.39
2019-02-19T02:51:31.237Z,-1.52
2019-02-19T02:53:59.975Z,-1.77
2019-02-19T02:56:28.918Z,-1.74
2019-02-19T02:58:57.576Z,-2.10
2019-02-19T03:01:26.481Z,-1.83
2019-02-19T03:03:55.204Z,-1.89
2019-02-19T03:06:25.693Z,-1.94
2019-02-19T03:08:54.476Z,-2.05
2019-02-19T03:11:23.177Z,-2.03
2019-02-19T03:13:51.976Z,-2.05
2019-02-19T03:16:20.932Z,-1.88
2019-02-19T03:18:49.577Z,-2.08
2019-02-19T03:21:18.248Z,-2.00
2019-02-19T03:23:47.187Z,-1.74
2019-02-19T03:26:15.976Z,-1.71
2019-02-19T03:28:44.877Z,-1.57
2019-02-19T03:31:13.676Z,-1.61
2019-02-19T03:33:42.455Z,-1.56
2019-02-19T03:36:11.186Z,-1.74
2019-02-19T03:38:39.975Z,-1.91
2019-02-19T03:41:08.795Z,-2.03
2019-02-19T03:43:37.685Z,-2.06
2019-02-19T03:46:11.962Z,-2.16
2019-02-19T03:48:36.775Z,-2.18
2019-02-19T03:51:05.696Z,-2.03
2019-02-19T03:53:34.491Z,-2.03
2019-02-19T03:56:03.185Z,-1.83
2019-02-19T03:58:31.895Z,-1.81
2019-02-19T04:01:00.840Z,-2.10
2019-02-19T04:03:29.618Z,-1.97
2019-02-19T04:05:58.407Z,-2.08
2019-02-19T04:08:27.190Z,-2.24
2019-02-19T04:10:55.980Z,-2.17
2019-02-19T04:13:24.880Z,-1.87
2019-02-19T04:15:53.662Z,-1.62
2019-02-19T04:18:22.332Z,-1.58
2019-02-19T04:20:51.232Z,-1.69
2019-02-19T04:23:20.430Z,-1.69
2019-02-19T04:25:49.200Z,-1.78
2019-02-19T04:28:18.215Z,-1.84
2019-02-19T04:30:47.105Z,-1.85
2019-02-19T04:33:15.888Z,-1.70
2019-02-19T04:35:44.716Z,-1.63
2019-02-19T04:38:13.421Z,-1.37
2019-02-19T04:40:42.350Z,-1.30
2019-02-19T04:43:10.997Z,-1.29
2019-02-19T04:45:39.920Z,-1.55
2019-02-19T04:48:08.541Z,-1.47
2019-02-19T04:50:37.495Z,-0.96
2019-02-19T04:53:06.276Z,-0.93
2019-02-19T04:55:35.015Z,-1.16
2019-02-19T04:58:03.888Z,-0.79
2019-02-19T05:00:32.638Z,-0.50
2019-02-19T05:03:01.542Z,-0.12
2019-02-19T05:05:30.315Z,0.27
2019-02-19T05:07:59.016Z,0.61
2019-02-19T05:10:27.886Z,1.11
2019-02-19T05:12:56.675Z,1.19
2019-02-19T05:15:25.453Z,0.86
2019-02-19T05:17:54.235Z,0.58
2019-02-19T05:20:23.028Z,0.27
2019-02-19T05:22:51.926Z,0.07
2019-02-19T05:25:20.757Z,-0.07
2019-02-19T05:27:49.806Z,-0.41
2019-02-19T05:30:18.607Z,-0.18
2019-02-19T05:32:47.367Z,-0.09
2019-02-19T05:35:16.210Z,-0.07
2019-02-19T05:37:45.056Z,-0.10
2019-02-19T05:40:13.735Z,-0.10
2019-02-19T05:42:42.358Z,-0.30
2019-02-19T05:45:11.166Z,-0.37
2019-02-19T05:47:40.197Z,-0.39
2019-02-19T05:50:10.630Z,-0.64
2019-02-19T05:52:39.284Z,-0.59
2019-02-19T05:55:08.802Z,-0.42
2019-02-19T05:57:37.576Z,-0.44
2019-02-19T06:00:09.798Z,-0.74
2019-02-19T06:02:38.450Z,-0.71
2019-02-19T06:05:09.497Z,-0.85
2019-02-19T06:07:38.162Z,-1.27
2019-02-19T06:10:10.225Z,-1.59
2019-02-19T06:12:39.166Z,-1.36
2019-02-19T06:15:10.791Z,-1.14
2019-02-19T06:17:39.876Z,-1.20
2019-02-19T06:20:09.723Z,-1.22
2019-02-19T06:22:38.778Z,-1.41
2019-02-19T06:25:09.478Z,-1.64
2019-02-19T06:27:38.918Z,-1.52
2019-02-19T06:30:10.977Z,-1.44
2019-02-19T06:32:39.753Z,-1.39
2019-02-19T06:35:09.821Z,-1.51
2019-02-19T06:37:38.553Z,-1.68
2019-02-19T06:40:15.566Z,-1.64
2019-02-19T06:42:44.530Z,-1.77
2019-02-19T06:45:13.265Z,-1.58
2019-02-19T06:47:42.055Z,-1.50
2019-02-19T06:50:10.880Z,-1.10
2019-02-19T06:52:39.666Z,-0.95
2019-02-19T06:55:08.780Z,-0.96
2019-02-19T06:57:37.661Z,-0.91
2019-02-19T07:00:12.170Z,-0.78
2019-02-19T07:02:45.478Z,-0.72
2019-02-19T07:05:18.766Z,-0.68
2019-02-19T07:07:47.504Z,-0.54
2019-02-19T07:10:16.303Z,-0.23
2019-02-19T07:12:45.115Z,-0.01
2019-02-19T07:15:13.900Z,0.15
2019-02-19T07:17:42.803Z,0.25
2019-02-19T07:20:11.810Z,0.37
2019-02-19T07:22:40.680Z,0.44
2019-02-19T07:25:11.978Z,0.81
2019-02-19T07:27:40.785Z,0.86
2019-02-19T07:30:11.546Z,1.10
2019-02-19T07:32:40.297Z,1.07
2019-02-19T07:35:10.696Z,1.10
2019-02-19T07:37:39.374Z,1.22
2019-02-19T07:40:09.355Z,1.38
2019-02-19T07:42:38.028Z,1.51
2019-02-19T07:45:09.736Z,1.68
2019-02-19T07:47:38.551Z,1.94
2019-02-19T07:50:09.938Z,2.23
2019-02-19T07:52:38.708Z,2.47
2019-02-19T07:55:09.743Z,2.55
2019-02-19T07:57:38.416Z,2.74
2019-02-19T08:00:12.415Z,3.01
2019-02-19T08:02:41.338Z,3.34
2019-02-19T08:05:10.081Z,3.62
2019-02-19T08:07:38.865Z,3.75
2019-02-19T08:10:13.841Z,3.92
2019-02-19T08:12:42.480Z,3.99
2019-02-19T08:15:12.296Z,4.11
2019-02-19T08:17:41.118Z,4.24
2019-02-19T08:20:15.866Z,4.35
2019-02-19T08:22:40.936Z,4.50
2019-02-19T08:25:09.607Z,4.81
2019-02-19T08:27:38.235Z,5.02
2019-02-19T08:30:11.211Z,5.35
2019-02-19T08:32:40.304Z,5.57
2019-02-19T08:35:09.093Z,5.88
2019-02-19T08:37:37.896Z,6.15
2019-02-19T08:40:09.603Z,6.47
2019-02-19T08:42:38.324Z,6.88
2019-02-19T08:45:09.422Z,7.14
2019-02-19T08:47:42.767Z,7.39
2019-02-19T08:50:08.944Z,7.75
2019-02-19T08:52:37.746Z,7.99
2019-02-19T08:55:07.491Z,8.22
2019-02-19T08:57:36.295Z,8.45
2019-02-19T09:00:08.086Z,8.68
2019-02-19T09:02:36.776Z,8.87
2019-02-19T09:05:07.525Z,9.05
2019-02-19T09:07:36.367Z,9.21
2019-02-19T09:10:07.659Z,9.34
2019-02-19T09:12:36.456Z,9.54
2019-02-19T09:15:07.826Z,9.90
2019-02-19T09:17:36.616Z,10.17
2019-02-19T09:20:08.301Z,10.74
2019-02-19T09:22:37.115Z,11.92
2019-02-19T09:25:08.681Z,13.59
2019-02-19T09:27:37.966Z,14.95
2019-02-19T09:30:12.461Z,16.03
2019-02-19T09:32:41.101Z,16.77
2019-02-19T09:35:10.376Z,17.39
2019-02-19T09:37:39.266Z,17.60
2019-02-19T09:40:11.367Z,18.44
2019-02-19T09:42:40.306Z,18.79
2019-02-19T09:45:10.696Z,18.65
2019-02-19T09:47:39.531Z,19.62
2019-02-19T09:50:10.535Z,20.70
2019-02-19T09:52:39.189Z,20.83
2019-02-19T09:55:08.348Z,20.46
2019-02-19T09:57:37.071Z,20.49
2019-02-19T10:00:14.126Z,20.05
2019-02-19T10:02:43.940Z,20.07
2019-02-19T10:05:12.949Z,18.82
2019-02-19T10:07:41.747Z,19.08
2019-02-19T10:10:19.380Z,19.79
2019-02-19T10:12:48.050Z,19.45
2019-02-19T10:15:16.776Z,19.76
2019-02-19T10:17:45.576Z,19.46
2019-02-19T10:20:14.440Z,19.48
2019-02-19T10:22:43.175Z,20.16
2019-02-19T10:25:14.286Z,20.28
2019-02-19T10:27:43.355Z,18.83
2019-02-19T10:30:17.951Z,18.18
2019-02-19T10:32:46.724Z,18.31
2019-02-19T10:35:15.495Z,18.13
2019-02-19T10:37:44.653Z,17.25
2019-02-19T10:40:18.225Z,18.06
2019-02-19T10:42:47.033Z,18.09
2019-02-19T10:45:24.461Z,18.55
2019-02-19T10:47:53.319Z,19.00
2019-02-19T10:50:22.007Z,19.22
2019-02-19T10:52:51.758Z,18.86
2019-02-19T10:55:21.020Z,18.25
2019-02-19T10:57:49.736Z,19.14
2019-02-19T11:00:23.086Z,18.96
2019-02-19T11:02:51.837Z,19.32
2019-02-19T11:05:21.207Z,18.83
2019-02-19T11:07:50.058Z,18.21
2019-02-19T11:10:18.715Z,18.30
2019-02-19T11:12:47.741Z,18.85
2019-02-19T11:15:17.460Z,18.89
2019-02-19T11:17:46.994Z,18.42
2019-02-19T11:20:18.910Z,18.33
2019-02-19T11:22:47.672Z,18.22
2019-02-19T11:25:16.483Z,18.41
2019-02-19T11:27:45.255Z,19.45
2019-02-19T11:30:20.338Z,19.34
2019-02-19T11:32:49.286Z,19.72
2019-02-19T11:35:17.936Z,19.82
2019-02-19T11:37:46.993Z,20.17
2019-02-19T11:40:15.986Z,20.05
2019-02-19T11:42:44.852Z,19.37
2019-02-19T11:45:17.936Z,19.50
2019-02-19T11:47:46.860Z,19.25
2019-02-19T11:50:15.655Z,18.95
2019-02-19T11:52:44.304Z,18.29
2019-02-19T11:55:18.446Z,18.07
2019-02-19T11:57:47.175Z,18.33
2019-02-19T12:00:18.652Z,18.96
2019-02-19T12:02:47.303Z,19.61
2019-02-19T12:05:16.178Z,19.57
2019-02-19T12:07:44.935Z,21.03
2019-02-19T12:10:13.735Z,20.58
2019-02-19T12:12:42.573Z,20.20
2019-02-19T12:15:12.936Z,20.47
2019-02-19T12:17:41.737Z,20.55
2019-02-19T12:20:12.775Z,20.75
2019-02-19T12:22:41.403Z,19.59
2019-02-19T12:25:10.708Z,18.67
2019-02-19T12:27:39.605Z,17.66
2019-02-19T12:30:14.731Z,17.87
2019-02-19T12:32:43.501Z,17.65
2019-02-19T12:35:12.325Z,17.88
2019-02-19T12:37:41.047Z,18.14
2019-02-19T12:40:14.073Z,18.20
2019-02-19T12:42:42.975Z,18.13
2019-02-19T12:45:13.255Z,17.77
2019-02-19T12:47:42.056Z,17.11
2019-02-19T12:50:16.297Z,17.07
2019-02-19T12:52:45.185Z,16.96
2019-02-19T12:55:13.826Z,17.30
2019-02-19T12:57:42.552Z,17.65
2019-02-19T13:00:13.842Z,17.23
2019-02-19T13:02:44.055Z,16.40
2019-02-19T13:05:14.538Z,15.73
2019-02-19T13:07:43.173Z,15.54
2019-02-19T13:10:13.141Z,15.37
2019-02-19T13:12:41.965Z,15.61
2019-02-19T13:15:16.466Z,15.81
2019-02-19T13:17:45.257Z,15.94
2019-02-19T13:20:15.778Z,16.02
2019-02-19T13:22:44.863Z,15.96
2019-02-19T13:25:13.586Z,15.76
2019-02-19T13:27:42.730Z,15.53
2019-02-19T13:30:21.908Z,15.19
2019-02-19T13:32:51.020Z,15.10
2019-02-19T13:35:19.977Z,15.24
2019-02-19T13:37:48.847Z,15.33
2019-02-19T13:40:21.116Z,14.82
2019-02-19T13:42:49.753Z,15.20
2019-02-19T13:45:18.791Z,15.91
2019-02-19T13:47:47.449Z,15.58
2019-02-19T13:50:22.706Z,15.63
2019-02-19T13:52:55.974Z,15.58
2019-02-19T13:55:26.457Z,14.74
2019-02-19T13:57:55.185Z,14.24
2019-02-19T14:00:25.588Z,13.97
2019-02-19T14:02:54.194Z,14.10
2019-02-19T14:05:22.844Z,14.17
2019-02-19T14:07:51.546Z,14.35
2019-02-19T14:10:20.487Z,14.65
2019-02-19T14:12:49.293Z,14.55
2019-02-19T14:15:35.785Z,14.51
2019-02-19T14:18:06.404Z,15.10
2019-02-19T14:20:51.888Z,14.99
2019-02-19T14:23:22.229Z,15.44
2019-02-19T14:25:55.906Z,15.09
2019-02-19T14:28:26.126Z,14.68
2019-02-19T14:31:12.653Z,14.45
2019-02-19T14:33:48.787Z,14.40
2019-02-19T14:36:15.027Z,14.24
2019-02-19T14:38:45.426Z,13.96
2019-02-19T14:41:22.026Z,13.82
2019-02-19T14:43:52.305Z,13.78
2019-02-19T14:46:38.705Z,13.77
2019-02-19T14:49:14.865Z,13.36
2019-02-19T14:51:54.648Z,12.93
2019-02-19T14:54:33.586Z,13.04
2019-02-19T14:57:09.847Z,13.14
2019-02-19T14:59:40.145Z,13.11
2019-02-19T15:02:29.213Z,13.11
2019-02-19T15:04:59.509Z,12.76
2019-02-19T15:07:32.785Z,12.91
2019-02-19T15:10:19.236Z,12.75
2019-02-19T15:13:01.785Z,12.66
2019-02-19T15:15:48.545Z,12.58
2019-02-19T15:18:18.865Z,12.66
2019-02-19T15:20:58.546Z,12.30
2019-02-19T15:23:29.091Z,12.34
2019-02-19T15:25:59.667Z,12.21
2019-02-19T15:28:35.827Z,12.17
2019-02-19T15:31:09.226Z,11.91
2019-02-19T15:33:56.145Z,11.62
2019-02-19T15:36:42.932Z,11.62
2019-02-19T15:39:19.106Z,11.69
2019-02-19T15:42:05.830Z,11.40
2019-02-19T15:44:38.945Z,11.16
2019-02-19T15:47:24.224Z,11.24
2019-02-19T15:50:06.657Z,11.27
2019-02-19T15:52:45.914Z,11.10
2019-02-19T15:55:31.889Z,10.94
2019-02-19T15:58:04.781Z,10.88
2019-02-19T16:00:43.809Z,10.53
2019-02-19T16:03:17.535Z,10.41
2019-02-19T16:05:47.824Z,10.47
2019-02-19T16:08:21.766Z,10.43
2019-02-19T16:10:51.549Z,10.38
2019-02-19T16:13:21.924Z,10.32
2019-02-19T16:15:55.903Z,10.35
2019-02-19T16:18:38.646Z,10.23
2019-02-19T16:21:13.606Z,10.25
2019-02-19T16:23:45.270Z,10.03
2019-02-19T16:26:21.820Z,10.03
2019-02-19T16:28:56.639Z,10.08
2019-02-19T16:31:34.385Z,10.01
2019-02-19T16:34:11.825Z,9.87
2019-02-19T16:36:52.522Z,9.82
2019-02-19T16:39:33.732Z,9.73
2019-02-19T16:42:04.434Z,9.66
2019-02-19T16:44:38.446Z,9.37
2019-02-19T16:47:24.229Z,9.40
2019-02-19T16:50:12.889Z,9.18
2019-02-19T16:52:56.364Z,8.95
2019-02-19T16:55:36.627Z,9.05
2019-02-19T16:58:11.164Z,9.03
2019-02-19T17:00:42.951Z,9.03
2019-02-19T17:03:16.846Z,8.85
2019-02-19T17:05:47.146Z,8.78
2019-02-19T17:08:18.544Z,8.59
2019-02-19T17:11:02.466Z,8.49
2019-02-19T17:13:58.096Z,8.31
2019-02-19T17:16:26.247Z,8.25
2019-02-19T17:18:58.224Z,8.53
2019-02-19T17:21:36.085Z,8.43
2019-02-19T17:24:13.204Z,8.60
2019-02-19T17:26:44.846Z,8.76
2019-02-19T17:29:31.824Z,8.80
2019-02-19T17:32:21.765Z,8.82
2019-02-19T17:34:56.685Z,8.70
2019-02-19T17:37:40.145Z,8.64
2019-02-19T17:40:11.784Z,8.76
2019-02-19T17:43:01.446Z,8.96
2019-02-19T17:45:45.986Z,9.03
2019-02-19T17:48:17.705Z,9.05
2019-02-19T17:50:51.829Z,8.93
2019-02-19T17:53:29.604Z,8.96
2019-02-19T17:56:13.124Z,8.91
2019-02-19T17:58:50.267Z,8.83
2019-02-19T18:01:30.928Z,8.77
2019-02-19T18:04:01.585Z,8.72
2019-02-19T18:06:32.905Z,8.75
2019-02-19T18:09:03.665Z,8.69
2019-02-19T18:11:35.665Z,8.66
2019-02-19T18:14:06.659Z,8.50
2019-02-19T18:16:40.433Z,8.54
2019-02-19T18:19:11.025Z,8.52
2019-02-19T18:21:41.913Z,8.56
2019-02-19T18:24:13.424Z,8.65
2019-02-19T18:26:44.829Z,8.56
2019-02-19T18:29:15.826Z,8.58
2019-02-19T18:31:46.568Z,8.60
2019-02-19T18:34:16.948Z,8.52
2019-02-19T18:36:47.665Z,8.74
2019-02-19T18:39:18.728Z,8.81
2019-02-19T18:41:49.124Z,8.99
2019-02-19T18:44:19.844Z,8.98
2019-02-19T18:46:50.227Z,9.00
2019-02-19T18:49:20.945Z,8.90
2019-02-19T18:51:51.345Z,8.78
2019-02-19T18:54:21.525Z,8.78
2019-02-19T18:56:52.164Z,8.93
2019-02-19T18:59:22.645Z,8.80
2019-02-19T19:01:53.265Z,8.55
2019-02-19T19:04:23.984Z,8.22
2019-02-19T19:06:55.784Z,8.01
2019-02-19T19:09:26.404Z,7.95
2019-02-19T19:11:57.115Z,7.82
2019-02-19T19:14:27.655Z,7.73
2019-02-19T19:16:58.235Z,7.60
2019-02-19T19:19:28.625Z,7.45
2019-02-19T19:21:59.344Z,7.42
2019-02-19T19:24:30.084Z,7.30
2019-02-19T19:27:00.804Z,7.24
2019-02-19T19:29:31.585Z,7.08
2019-02-19T19:32:02.566Z,7.00
2019-02-19T19:34:33.285Z,7.05
2019-02-19T19:37:04.006Z,7.03
2019-02-19T19:39:34.726Z,6.89
2019-02-19T19:42:05.461Z,6.84
2019-02-19T19:44:36.165Z,6.90
2019-02-19T19:47:06.884Z,6.89
2019-02-19T19:49:37.610Z,6.92
2019-02-19T19:52:08.326Z,6.93
2019-02-19T19:54:38.724Z,6.98
2019-02-19T19:57:10.724Z,6.82
2019-02-19T19:59:41.766Z,6.84
2019-02-19T20:02:12.487Z,6.79
2019-02-19T20:04:43.204Z,6.72
2019-02-19T20:07:14.245Z,6.64
2019-02-19T20:09:45.092Z,6.45
2019-02-19T20:12:14.182Z,6.24
2019-02-19T20:14:43.538Z,6.21
2019-02-19T20:17:14.050Z,6.22
2019-02-19T20:19:45.285Z,6.29
2019-02-19T20:22:16.005Z,6.35
2019-02-19T20:24:47.375Z,6.35
2019-02-19T20:27:18.645Z,6.29
2019-02-19T20:29:48.584Z,6.23
2019-02-19T20:32:18.886Z,6.21
2019-02-19T20:34:49.609Z,6.07
2019-02-19T20:37:22.213Z,5.84
2019-02-19T20:39:55.586Z,5.80
2019-02-19T20:42:27.524Z,5.76
2019-02-19T20:45:00.827Z,6.05
2019-02-19T20:47:31.526Z,6.23
2019-02-19T20:50:01.866Z,6.36
2019-02-19T20:52:34.249Z,6.45
2019-02-19T20:55:04.967Z,6.41
2019-02-19T20:57:35.684Z,6.23
2019-02-19T21:00:07.612Z,6.27
2019-02-19T21:02:39.366Z,6.14
2019-02-19T21:05:11.048Z,6.19
2019-02-19T21:07:41.765Z,6.29
2019-02-19T21:10:14.846Z,6.38
2019-02-19T21:12:44.905Z,6.48
2019-02-19T21:15:15.525Z,6.47
2019-02-19T21:17:45.584Z,6.49
2019-02-19T21:20:16.646Z,6.54
2019-02-19T21:22:48.328Z,6.55
2019-02-19T21:25:18.545Z,6.19
2019-02-19T21:27:49.124Z,6.04
2019-02-19T21:30:19.847Z,5.98
2019-02-19T21:32:50.244Z,5.99
2019-02-19T21:35:20.965Z,5.90
2019-02-19T21:37:51.366Z,5.70
2019-02-19T21:40:22.064Z,5.59
2019-02-19T21:42:52.804Z,5.51
2019-02-19T21:45:23.527Z,5.41
2019-02-19T21:47:54.248Z,5.39
2019-02-19T21:50:24.968Z,5.33
2019-02-19T21:52:55.446Z,5.16
2019-02-19T21:55:26.126Z,5.13
2019-02-19T21:57:56.205Z,5.15
2019-02-19T22:00:26.224Z,5.07
2019-02-19T22:02:55.665Z,4.98
2019-02-19T22:05:24.564Z,4.84
2019-02-19T22:07:53.657Z,4.66
2019-02-19T22:10:22.747Z,4.55
2019-02-19T22:12:51.544Z,4.50
2019-02-19T22:15:20.304Z,4.37
2019-02-19T22:17:49.211Z,4.31
2019-02-19T22:20:40.429Z,4.29
2019-02-19T22:23:09.085Z,4.06
2019-02-19T22:25:37.929Z,4.02
2019-02-19T22:28:06.705Z,4.31
2019-02-19T22:30:35.570Z,4.43
2019-02-19T22:33:04.204Z,4.53
2019-02-19T22:35:32.864Z,4.55
2019-02-19T22:38:01.585Z,4.53
2019-02-19T22:40:30.307Z,4.77
2019-02-19T22:42:59.307Z,4.87
2019-02-19T22:45:27.986Z,4.82
2019-02-19T22:47:56.792Z,4.61
2019-02-19T22:50:25.666Z,4.49
2019-02-19T22:52:54.368Z,4.53
2019-02-19T22:55:34.086Z,4.61
2019-02-19T22:58:02.873Z,4.41
2019-02-19T23:00:49.910Z,4.35
2019-02-19T23:03:26.065Z,4.27
2019-02-19T23:05:54.925Z,3.99
2019-02-19T23:08:23.664Z,4.09
2019-02-19T23:10:52.504Z,4.05
2019-02-19T23:13:21.264Z,3.99
2019-02-19T23:15:50.064Z,3.87
2019-02-19T23:18:18.966Z,3.82
2019-02-19T23:20:48.065Z,3.65
2019-02-19T23:23:16.785Z,3.60
2019-02-19T23:25:45.645Z,3.74
2019-02-19T23:28:14.385Z,3.57
2019-02-19T23:30:43.204Z,3.50
2019-02-19T23:33:12.107Z,3.43
2019-02-19T23:35:51.446Z,3.43
2019-02-19T23:38:20.145Z,3.41
2019-02-19T23:40:48.965Z,3.38
2019-02-19T23:43:17.666Z,3.61
2019-02-19T23:45:46.564Z,3.51
2019-02-19T23:48:15.366Z,3.50
2019-02-19T23:50:44.146Z,3.28
2019-02-19T23:53:12.777Z,3.36
2019-02-19T23:55:41.826Z,3.31
2019-02-19T23:58:10.546Z,3.19
